sensor_id;sensor_type;location;lat;lon;timestamp;P1;durP1;ratioP1;P2;durP2;ratioP2
74465;SDS011;62916;50.044;15.938;2022-11-11T00:02:27;3.30;;;3.00;;
74465;SDS011;62916;50.044;15.938;2022-11-11T00:04:57;3.70;;;2.80;;
74465;SDS011;62916;50.044;15.938;2022-11-11T00:07:29;3.70;;;3.40;;
74465;SDS011;62916;50.044;15.938;2022-11-11T00:10:00;3.60;;;3.30;;
74465;SDS011;62916;50.044;15.938;2022-11-11T00:12:31;3.60;;;3.20;;
74465;SDS011;62916;50.044;15.938;2022-11-11T00:15:02;4.20;;;3.80;;
74465;SDS011;62916;50.044;15.938;2022-11-11T00:17:34;3.20;;;2.90;;
74465;SDS011;62916;50.044;15.938;2022-11-11T00:20:23;3.40;;;3.10;;
74465;SDS011;62916;50.044;15.938;2022-11-11T00:23:16;2.60;;;2.40;;
74465;SDS011;62916;50.044;15.938;2022-11-11T00:26:08;3.10;;;2.90;;
74465;SDS011;62916;50.044;15.938;2022-11-11T00:29:01;3.00;;;2.70;;
74465;SDS011;62916;50.044;15.938;2022-11-11T00:31:32;3.10;;;2.80;;
74465;SDS011;62916;50.044;15.938;2022-11-11T00:34:24;3.60;;;3.10;;
74465;SDS011;62916;50.044;15.938;2022-11-11T00:36:55;3.10;;;2.80;;
74465;SDS011;62916;50.044;15.938;2022-11-11T00:39:26;3.60;;;3.10;;
74465;SDS011;62916;50.044;15.938;2022-11-11T00:41:57;3.50;;;3.20;;
74465;SDS011;62916;50.044;15.938;2022-11-11T00:44:28;3.20;;;2.90;;
74465;SDS011;62916;50.044;15.938;2022-11-11T00:46:59;3.40;;;3.10;;
74465;SDS011;62916;50.044;15.938;2022-11-11T00:49:47;3.30;;;3.00;;
74465;SDS011;62916;50.044;15.938;2022-11-11T00:52:36;3.30;;;3.00;;
74465;SDS011;62916;50.044;15.938;2022-11-11T00:55:08;3.40;;;3.00;;
74465;SDS011;62916;50.044;15.938;2022-11-11T00:57:39;4.30;;;3.30;;
74465;SDS011;62916;50.044;15.938;2022-11-11T01:00:11;2.90;;;2.60;;
74465;SDS011;62916;50.044;15.938;2022-11-11T01:02:43;3.50;;;2.90;;
74465;SDS011;62916;50.044;15.938;2022-11-11T01:05:14;3.50;;;3.20;;
74465;SDS011;62916;50.044;15.938;2022-11-11T01:07:46;3.40;;;3.10;;
74465;SDS011;62916;50.044;15.938;2022-11-11T01:10:19;3.80;;;3.50;;
74465;SDS011;62916;50.044;15.938;2022-11-11T01:13:17;3.40;;;2.80;;
74465;SDS011;62916;50.044;15.938;2022-11-11T01:15:50;3.50;;;3.20;;
74465;SDS011;62916;50.044;15.938;2022-11-11T01:18:25;3.90;;;3.10;;
74465;SDS011;62916;50.044;15.938;2022-11-11T01:20:58;3.40;;;3.10;;
74465;SDS011;62916;50.044;15.938;2022-11-11T01:23:30;3.40;;;3.10;;
74465;SDS011;62916;50.044;15.938;2022-11-11T01:26:03;4.80;;;2.80;;
74465;SDS011;62916;50.044;15.938;2022-11-11T01:28:36;3.10;;;2.80;;
74465;SDS011;62916;50.044;15.938;2022-11-11T01:31:07;3.70;;;3.40;;
74465;SDS011;62916;50.044;15.938;2022-11-11T01:33:40;3.20;;;2.90;;
74465;SDS011;62916;50.044;15.938;2022-11-11T01:36:12;3.90;;;3.50;;
74465;SDS011;62916;50.044;15.938;2022-11-11T01:38:47;3.40;;;3.10;;
74465;SDS011;62916;50.044;15.938;2022-11-11T01:41:20;3.80;;;3.50;;
74465;SDS011;62916;50.044;15.938;2022-11-11T01:44:02;3.30;;;3.00;;
74465;SDS011;62916;50.044;15.938;2022-11-11T01:46:46;3.00;;;2.60;;
74465;SDS011;62916;50.044;15.938;2022-11-11T01:49:23;3.30;;;3.00;;
74465;SDS011;62916;50.044;15.938;2022-11-11T01:52:02;3.70;;;3.20;;
74465;SDS011;62916;50.044;15.938;2022-11-11T01:54:41;3.60;;;3.20;;
74465;SDS011;62916;50.044;15.938;2022-11-11T01:57:16;3.20;;;2.70;;
74465;SDS011;62916;50.044;15.938;2022-11-11T01:59:52;3.20;;;2.90;;
74465;SDS011;62916;50.044;15.938;2022-11-11T02:02:28;3.30;;;3.00;;
74465;SDS011;62916;50.044;15.938;2022-11-11T02:05:06;2.80;;;2.60;;
74465;SDS011;62916;50.044;15.938;2022-11-11T02:07:59;5.00;;;3.00;;
74465;SDS011;62916;50.044;15.938;2022-11-11T02:10:33;4.50;;;4.10;;
74465;SDS011;62916;50.044;15.938;2022-11-11T02:13:07;3.20;;;2.90;;
74465;SDS011;62916;50.044;15.938;2022-11-11T02:15:58;3.70;;;2.90;;
74465;SDS011;62916;50.044;15.938;2022-11-11T02:18:29;3.20;;;2.90;;
74465;SDS011;62916;50.044;15.938;2022-11-11T02:21:02;3.10;;;2.90;;
74465;SDS011;62916;50.044;15.938;2022-11-11T02:23:34;2.60;;;2.40;;
74465;SDS011;62916;50.044;15.938;2022-11-11T02:26:10;3.40;;;2.90;;
74465;SDS011;62916;50.044;15.938;2022-11-11T02:28:44;4.10;;;2.90;;
74465;SDS011;62916;50.044;15.938;2022-11-11T02:31:15;3.30;;;3.00;;
74465;SDS011;62916;50.044;15.938;2022-11-11T02:33:47;2.70;;;2.50;;
74465;SDS011;62916;50.044;15.938;2022-11-11T02:36:18;3.30;;;3.00;;
74465;SDS011;62916;50.044;15.938;2022-11-11T02:38:49;5.40;;;2.70;;
74465;SDS011;62916;50.044;15.938;2022-11-11T02:41:21;2.70;;;2.50;;
74465;SDS011;62916;50.044;15.938;2022-11-11T02:44:09;3.50;;;2.80;;
74465;SDS011;62916;50.044;15.938;2022-11-11T02:46:41;3.30;;;3.00;;
74465;SDS011;62916;50.044;15.938;2022-11-11T02:49:12;3.30;;;3.00;;
74465;SDS011;62916;50.044;15.938;2022-11-11T02:51:43;2.90;;;2.50;;
74465;SDS011;62916;50.044;15.938;2022-11-11T02:54:14;3.40;;;3.10;;
74465;SDS011;62916;50.044;15.938;2022-11-11T02:56:45;2.80;;;2.60;;
74465;SDS011;62916;50.044;15.938;2022-11-11T02:59:33;2.80;;;2.60;;
74465;SDS011;62916;50.044;15.938;2022-11-11T03:02:05;2.80;;;2.60;;
74465;SDS011;62916;50.044;15.938;2022-11-11T03:04:36;3.20;;;2.90;;
74465;SDS011;62916;50.044;15.938;2022-11-11T03:07:07;2.90;;;2.60;;
74465;SDS011;62916;50.044;15.938;2022-11-11T03:09:38;2.90;;;2.70;;
74465;SDS011;62916;50.044;15.938;2022-11-11T03:12:09;3.00;;;2.70;;
74465;SDS011;62916;50.044;15.938;2022-11-11T03:14:40;3.10;;;2.70;;
74465;SDS011;62916;50.044;15.938;2022-11-11T03:17:11;3.30;;;2.90;;
74465;SDS011;62916;50.044;15.938;2022-11-11T03:20:00;2.90;;;2.40;;
74465;SDS011;62916;50.044;15.938;2022-11-11T03:23:01;3.10;;;2.80;;
74465;SDS011;62916;50.044;15.938;2022-11-11T03:25:33;3.30;;;2.60;;
74465;SDS011;62916;50.044;15.938;2022-11-11T03:28:08;2.50;;;2.30;;
74465;SDS011;62916;50.044;15.938;2022-11-11T03:30:41;2.60;;;2.30;;
74465;SDS011;62916;50.044;15.938;2022-11-11T03:33:13;3.10;;;2.80;;
74465;SDS011;62916;50.044;15.938;2022-11-11T03:35:46;3.00;;;2.70;;
74465;SDS011;62916;50.044;15.938;2022-11-11T03:38:17;3.30;;;2.50;;
74465;SDS011;62916;50.044;15.938;2022-11-11T03:40:52;2.60;;;2.40;;
74465;SDS011;62916;50.044;15.938;2022-11-11T03:43:24;2.50;;;2.30;;
74465;SDS011;62916;50.044;15.938;2022-11-11T03:45:56;3.00;;;2.70;;
74465;SDS011;62916;50.044;15.938;2022-11-11T03:48:30;2.80;;;2.50;;
74465;SDS011;62916;50.044;15.938;2022-11-11T03:51:02;2.50;;;2.30;;
74465;SDS011;62916;50.044;15.938;2022-11-11T03:53:33;2.80;;;2.50;;
74465;SDS011;62916;50.044;15.938;2022-11-11T03:56:04;3.90;;;2.80;;
74465;SDS011;62916;50.044;15.938;2022-11-11T03:58:35;2.90;;;2.30;;
74465;SDS011;62916;50.044;15.938;2022-11-11T04:01:06;2.40;;;2.20;;
74465;SDS011;62916;50.044;15.938;2022-11-11T04:03:57;3.00;;;2.40;;
74465;SDS011;62916;50.044;15.938;2022-11-11T04:06:45;2.80;;;2.50;;
74465;SDS011;62916;50.044;15.938;2022-11-11T04:09:34;3.60;;;2.90;;
74465;SDS011;62916;50.044;15.938;2022-11-11T04:12:23;2.70;;;2.40;;
74465;SDS011;62916;50.044;15.938;2022-11-11T04:14:54;2.40;;;2.20;;
74465;SDS011;62916;50.044;15.938;2022-11-11T04:17:43;2.50;;;2.30;;
74465;SDS011;62916;50.044;15.938;2022-11-11T04:20:14;3.20;;;2.60;;
74465;SDS011;62916;50.044;15.938;2022-11-11T04:23:03;4.70;;;3.00;;
74465;SDS011;62916;50.044;15.938;2022-11-11T04:25:33;3.80;;;2.90;;
74465;SDS011;62916;50.044;15.938;2022-11-11T04:28:17;3.00;;;2.60;;
74465;SDS011;62916;50.044;15.938;2022-11-11T04:31:05;2.90;;;2.60;;
74465;SDS011;62916;50.044;15.938;2022-11-11T04:33:35;3.00;;;2.60;;
74465;SDS011;62916;50.044;15.938;2022-11-11T04:36:06;3.30;;;2.90;;
74465;SDS011;62916;50.044;15.938;2022-11-11T04:38:37;3.20;;;2.90;;
74465;SDS011;62916;50.044;15.938;2022-11-11T04:41:26;5.80;;;3.00;;
74465;SDS011;62916;50.044;15.938;2022-11-11T04:44:16;10.70;;;2.90;;
74465;SDS011;62916;50.044;15.938;2022-11-11T04:47:05;8.30;;;2.90;;
74465;SDS011;62916;50.044;15.938;2022-11-11T04:49:36;7.20;;;3.20;;
74465;SDS011;62916;50.044;15.938;2022-11-11T04:52:09;5.50;;;2.70;;
74465;SDS011;62916;50.044;15.938;2022-11-11T04:54:56;8.30;;;2.80;;
74465;SDS011;62916;50.044;15.938;2022-11-11T04:57:48;5.40;;;2.90;;
74465;SDS011;62916;50.044;15.938;2022-11-11T05:00:19;8.50;;;3.30;;
74465;SDS011;62916;50.044;15.938;2022-11-11T05:02:57;11.20;;;3.50;;
74465;SDS011;62916;50.044;15.938;2022-11-11T05:05:47;9.80;;;3.30;;
74465;SDS011;62916;50.044;15.938;2022-11-11T05:08:37;10.80;;;3.10;;
74465;SDS011;62916;50.044;15.938;2022-11-11T05:11:26;11.40;;;2.90;;
74465;SDS011;62916;50.044;15.938;2022-11-11T05:14:00;11.20;;;3.20;;
74465;SDS011;62916;50.044;15.938;2022-11-11T05:16:50;8.30;;;2.90;;
74465;SDS011;62916;50.044;15.938;2022-11-11T05:19:39;8.00;;;3.10;;
74465;SDS011;62916;50.044;15.938;2022-11-11T05:22:29;7.30;;;2.70;;
74465;SDS011;62916;50.044;15.938;2022-11-11T05:25:02;5.60;;;3.40;;
74465;SDS011;62916;50.044;15.938;2022-11-11T05:27:52;7.60;;;2.70;;
74465;SDS011;62916;50.044;15.938;2022-11-11T05:30:23;7.30;;;2.60;;
74465;SDS011;62916;50.044;15.938;2022-11-11T05:32:54;9.80;;;2.90;;
74465;SDS011;62916;50.044;15.938;2022-11-11T05:35:25;10.70;;;2.80;;
74465;SDS011;62916;50.044;15.938;2022-11-11T05:37:59;9.30;;;2.90;;
74465;SDS011;62916;50.044;15.938;2022-11-11T05:40:47;6.20;;;3.20;;
74465;SDS011;62916;50.044;15.938;2022-11-11T05:43:19;5.70;;;2.50;;
74465;SDS011;62916;50.044;15.938;2022-11-11T05:45:50;8.50;;;2.70;;
74465;SDS011;62916;50.044;15.938;2022-11-11T05:48:21;7.00;;;3.60;;
74465;SDS011;62916;50.044;15.938;2022-11-11T05:50:52;6.70;;;2.50;;
74465;SDS011;62916;50.044;15.938;2022-11-11T05:53:22;6.90;;;2.90;;
74465;SDS011;62916;50.044;15.938;2022-11-11T05:55:54;5.80;;;3.00;;
74465;SDS011;62916;50.044;15.938;2022-11-11T05:58:24;5.00;;;2.40;;
74465;SDS011;62916;50.044;15.938;2022-11-11T06:00:57;4.70;;;2.50;;
74465;SDS011;62916;50.044;15.938;2022-11-11T06:03:28;6.30;;;2.60;;
74465;SDS011;62916;50.044;15.938;2022-11-11T06:05:59;6.40;;;2.80;;
74465;SDS011;62916;50.044;15.938;2022-11-11T06:08:29;5.60;;;2.50;;
74465;SDS011;62916;50.044;15.938;2022-11-11T06:11:00;4.10;;;2.50;;
74465;SDS011;62916;50.044;15.938;2022-11-11T06:13:31;6.50;;;2.70;;
74465;SDS011;62916;50.044;15.938;2022-11-11T06:16:02;3.80;;;2.00;;
74465;SDS011;62916;50.044;15.938;2022-11-11T06:18:34;4.20;;;2.50;;
74465;SDS011;62916;50.044;15.938;2022-11-11T06:21:05;5.50;;;2.30;;
74465;SDS011;62916;50.044;15.938;2022-11-11T06:23:36;6.00;;;2.40;;
74465;SDS011;62916;50.044;15.938;2022-11-11T06:26:08;5.50;;;2.40;;
74465;SDS011;62916;50.044;15.938;2022-11-11T06:28:43;5.30;;;2.40;;
74465;SDS011;62916;50.044;15.938;2022-11-11T06:31:16;5.90;;;2.60;;
74465;SDS011;62916;50.044;15.938;2022-11-11T06:33:48;3.30;;;2.50;;
74465;SDS011;62916;50.044;15.938;2022-11-11T06:36:20;5.90;;;2.70;;
74465;SDS011;62916;50.044;15.938;2022-11-11T06:38:51;5.20;;;2.50;;
74465;SDS011;62916;50.044;15.938;2022-11-11T06:41:22;3.90;;;2.80;;
74465;SDS011;62916;50.044;15.938;2022-11-11T06:43:53;3.90;;;2.20;;
74465;SDS011;62916;50.044;15.938;2022-11-11T06:46:24;3.60;;;2.20;;
74465;SDS011;62916;50.044;15.938;2022-11-11T06:48:55;3.70;;;2.30;;
74465;SDS011;62916;50.044;15.938;2022-11-11T06:51:26;3.20;;;2.20;;
74465;SDS011;62916;50.044;15.938;2022-11-11T06:53:56;4.40;;;2.30;;
74465;SDS011;62916;50.044;15.938;2022-11-11T06:56:27;4.70;;;2.00;;
74465;SDS011;62916;50.044;15.938;2022-11-11T06:58:58;3.20;;;2.10;;
74465;SDS011;62916;50.044;15.938;2022-11-11T07:01:29;5.10;;;2.20;;
74465;SDS011;62916;50.044;15.938;2022-11-11T07:04:00;4.70;;;2.50;;
74465;SDS011;62916;50.044;15.938;2022-11-11T07:06:31;2.60;;;2.00;;
74465;SDS011;62916;50.044;15.938;2022-11-11T07:09:02;5.10;;;2.20;;
74465;SDS011;62916;50.044;15.938;2022-11-11T07:11:33;3.40;;;2.20;;
74465;SDS011;62916;50.044;15.938;2022-11-11T07:14:03;4.10;;;2.40;;
74465;SDS011;62916;50.044;15.938;2022-11-11T07:16:34;3.40;;;2.10;;
74465;SDS011;62916;50.044;15.938;2022-11-11T07:19:05;2.60;;;2.20;;
74465;SDS011;62916;50.044;15.938;2022-11-11T07:21:36;3.60;;;2.40;;
74465;SDS011;62916;50.044;15.938;2022-11-11T07:24:07;2.60;;;1.90;;
74465;SDS011;62916;50.044;15.938;2022-11-11T07:26:37;4.20;;;2.80;;
74465;SDS011;62916;50.044;15.938;2022-11-11T07:29:09;3.60;;;2.50;;
74465;SDS011;62916;50.044;15.938;2022-11-11T07:31:41;4.00;;;2.70;;
74465;SDS011;62916;50.044;15.938;2022-11-11T07:34:12;3.00;;;2.10;;
74465;SDS011;62916;50.044;15.938;2022-11-11T07:36:43;3.60;;;2.30;;
74465;SDS011;62916;50.044;15.938;2022-11-11T07:39:14;3.60;;;3.30;;
74465;SDS011;62916;50.044;15.938;2022-11-11T07:41:44;2.40;;;1.90;;
74465;SDS011;62916;50.044;15.938;2022-11-11T07:44:15;4.00;;;1.80;;
74465;SDS011;62916;50.044;15.938;2022-11-11T07:46:46;2.10;;;1.90;;
74465;SDS011;62916;50.044;15.938;2022-11-11T07:49:17;4.40;;;2.00;;
74465;SDS011;62916;50.044;15.938;2022-11-11T07:51:48;4.60;;;2.10;;
74465;SDS011;62916;50.044;15.938;2022-11-11T07:54:18;3.40;;;2.30;;
74465;SDS011;62916;50.044;15.938;2022-11-11T07:56:49;3.50;;;1.90;;
74465;SDS011;62916;50.044;15.938;2022-11-11T07:59:20;3.70;;;2.10;;
74465;SDS011;62916;50.044;15.938;2022-11-11T08:01:51;2.80;;;1.90;;
74465;SDS011;62916;50.044;15.938;2022-11-11T08:04:21;2.30;;;1.70;;
74465;SDS011;62916;50.044;15.938;2022-11-11T08:06:52;3.30;;;1.80;;
74465;SDS011;62916;50.044;15.938;2022-11-11T08:09:23;2.00;;;1.80;;
74465;SDS011;62916;50.044;15.938;2022-11-11T08:11:54;1.90;;;1.70;;
74465;SDS011;62916;50.044;15.938;2022-11-11T08:14:48;2.40;;;1.70;;
74465;SDS011;62916;50.044;15.938;2022-11-11T08:17:19;2.40;;;1.70;;
74465;SDS011;62916;50.044;15.938;2022-11-11T08:19:50;3.40;;;2.10;;
74465;SDS011;62916;50.044;15.938;2022-11-11T08:22:21;3.50;;;2.20;;
74465;SDS011;62916;50.044;15.938;2022-11-11T08:24:52;2.70;;;2.00;;
74465;SDS011;62916;50.044;15.938;2022-11-11T08:27:30;3.60;;;2.20;;
74465;SDS011;62916;50.044;15.938;2022-11-11T08:30:01;2.20;;;1.70;;
74465;SDS011;62916;50.044;15.938;2022-11-11T08:32:33;2.10;;;1.80;;
74465;SDS011;62916;50.044;15.938;2022-11-11T08:35:04;3.80;;;2.20;;
74465;SDS011;62916;50.044;15.938;2022-11-11T08:37:35;2.50;;;1.70;;
74465;SDS011;62916;50.044;15.938;2022-11-11T08:40:07;2.10;;;1.80;;
74465;SDS011;62916;50.044;15.938;2022-11-11T08:42:38;2.00;;;1.80;;
74465;SDS011;62916;50.044;15.938;2022-11-11T08:45:09;2.00;;;1.70;;
74465;SDS011;62916;50.044;15.938;2022-11-11T08:47:43;2.40;;;1.90;;
74465;SDS011;62916;50.044;15.938;2022-11-11T08:50:14;4.00;;;2.10;;
74465;SDS011;62916;50.044;15.938;2022-11-11T08:52:46;2.00;;;1.80;;
74465;SDS011;62916;50.044;15.938;2022-11-11T08:55:17;2.50;;;2.00;;
74465;SDS011;62916;50.044;15.938;2022-11-11T08:57:48;1.90;;;1.50;;
74465;SDS011;62916;50.044;15.938;2022-11-11T09:00:27;1.90;;;1.70;;
74465;SDS011;62916;50.044;15.938;2022-11-11T09:03:00;2.50;;;2.00;;
74465;SDS011;62916;50.044;15.938;2022-11-11T09:05:31;2.30;;;2.10;;
74465;SDS011;62916;50.044;15.938;2022-11-11T09:08:03;2.80;;;1.70;;
74465;SDS011;62916;50.044;15.938;2022-11-11T09:10:35;2.60;;;1.90;;
74465;SDS011;62916;50.044;15.938;2022-11-11T09:13:06;1.80;;;1.60;;
74465;SDS011;62916;50.044;15.938;2022-11-11T09:15:37;2.10;;;1.80;;
74465;SDS011;62916;50.044;15.938;2022-11-11T09:18:08;1.70;;;1.50;;
74465;SDS011;62916;50.044;15.938;2022-11-11T09:20:38;2.90;;;1.60;;
74465;SDS011;62916;50.044;15.938;2022-11-11T09:23:09;2.70;;;2.00;;
74465;SDS011;62916;50.044;15.938;2022-11-11T09:25:40;1.60;;;1.50;;
74465;SDS011;62916;50.044;15.938;2022-11-11T09:28:11;2.10;;;1.80;;
74465;SDS011;62916;50.044;15.938;2022-11-11T09:30:42;2.40;;;1.60;;
74465;SDS011;62916;50.044;15.938;2022-11-11T09:33:12;2.20;;;1.70;;
74465;SDS011;62916;50.044;15.938;2022-11-11T09:35:45;2.50;;;1.90;;
74465;SDS011;62916;50.044;15.938;2022-11-11T09:38:15;1.90;;;1.70;;
74465;SDS011;62916;50.044;15.938;2022-11-11T09:40:48;2.50;;;2.30;;
74465;SDS011;62916;50.044;15.938;2022-11-11T09:43:29;1.80;;;1.70;;
74465;SDS011;62916;50.044;15.938;2022-11-11T09:46:11;2.00;;;1.70;;
74465;SDS011;62916;50.044;15.938;2022-11-11T09:48:51;1.70;;;1.60;;
74465;SDS011;62916;50.044;15.938;2022-11-11T09:51:39;2.00;;;1.60;;
74465;SDS011;62916;50.044;15.938;2022-11-11T09:54:18;3.20;;;1.70;;
74465;SDS011;62916;50.044;15.938;2022-11-11T09:56:58;3.00;;;1.70;;
74465;SDS011;62916;50.044;15.938;2022-11-11T09:59:36;1.80;;;1.70;;
74465;SDS011;62916;50.044;15.938;2022-11-11T10:02:28;2.60;;;1.70;;
74465;SDS011;62916;50.044;15.938;2022-11-11T10:05:05;2.10;;;1.90;;
74465;SDS011;62916;50.044;15.938;2022-11-11T10:07:41;3.20;;;2.00;;
74465;SDS011;62916;50.044;15.938;2022-11-11T10:10:25;2.50;;;1.90;;
74465;SDS011;62916;50.044;15.938;2022-11-11T10:13:02;2.10;;;1.90;;
74465;SDS011;62916;50.044;15.938;2022-11-11T10:15:42;2.50;;;2.30;;
74465;SDS011;62916;50.044;15.938;2022-11-11T10:18:25;2.30;;;2.10;;
74465;SDS011;62916;50.044;15.938;2022-11-11T10:21:13;2.10;;;1.70;;
74465;SDS011;62916;50.044;15.938;2022-11-11T10:23:50;2.80;;;1.90;;
74465;SDS011;62916;50.044;15.938;2022-11-11T10:26:28;2.60;;;2.40;;
74465;SDS011;62916;50.044;15.938;2022-11-11T10:29:07;2.00;;;1.80;;
74465;SDS011;62916;50.044;15.938;2022-11-11T10:31:42;1.90;;;1.80;;
74465;SDS011;62916;50.044;15.938;2022-11-11T10:34:24;2.30;;;2.00;;
74465;SDS011;62916;50.044;15.938;2022-11-11T10:37:00;1.70;;;1.60;;
74465;SDS011;62916;50.044;15.938;2022-11-11T10:39:35;2.00;;;1.70;;
74465;SDS011;62916;50.044;15.938;2022-11-11T10:42:14;2.20;;;2.00;;
74465;SDS011;62916;50.044;15.938;2022-11-11T10:44:46;2.00;;;1.80;;
74465;SDS011;62916;50.044;15.938;2022-11-11T10:47:18;2.10;;;1.80;;
74465;SDS011;62916;50.044;15.938;2022-11-11T10:49:57;2.00;;;1.80;;
74465;SDS011;62916;50.044;15.938;2022-11-11T10:52:35;2.50;;;1.60;;
74465;SDS011;62916;50.044;15.938;2022-11-11T10:55:10;2.90;;;1.80;;
74465;SDS011;62916;50.044;15.938;2022-11-11T10:57:49;2.70;;;1.70;;
74465;SDS011;62916;50.044;15.938;2022-11-11T11:00:24;3.00;;;1.70;;
74465;SDS011;62916;50.044;15.938;2022-11-11T11:02:56;2.90;;;1.80;;
74465;SDS011;62916;50.044;15.938;2022-11-11T11:05:36;4.20;;;2.00;;
74465;SDS011;62916;50.044;15.938;2022-11-11T11:08:15;2.80;;;1.70;;
74465;SDS011;62916;50.044;15.938;2022-11-11T11:10:51;3.50;;;2.00;;
74465;SDS011;62916;50.044;15.938;2022-11-11T11:13:27;2.10;;;1.90;;
74465;SDS011;62916;50.044;15.938;2022-11-11T11:16:03;2.40;;;2.10;;
74465;SDS011;62916;50.044;15.938;2022-11-11T11:18:40;3.10;;;2.50;;
74465;SDS011;62916;50.044;15.938;2022-11-11T11:21:12;3.10;;;2.00;;
74465;SDS011;62916;50.044;15.938;2022-11-11T11:23:43;3.40;;;2.00;;
74465;SDS011;62916;50.044;15.938;2022-11-11T11:26:15;2.30;;;1.90;;
74465;SDS011;62916;50.044;15.938;2022-11-11T11:28:53;3.30;;;2.10;;
74465;SDS011;62916;50.044;15.938;2022-11-11T11:31:34;2.50;;;2.20;;
74465;SDS011;62916;50.044;15.938;2022-11-11T11:34:06;3.70;;;2.90;;
74465;SDS011;62916;50.044;15.938;2022-11-11T11:36:37;3.90;;;2.50;;
74465;SDS011;62916;50.044;15.938;2022-11-11T11:39:08;3.30;;;2.30;;
74465;SDS011;62916;50.044;15.938;2022-11-11T11:41:40;2.70;;;2.40;;
74465;SDS011;62916;50.044;15.938;2022-11-11T11:44:26;2.50;;;2.30;;
74465;SDS011;62916;50.044;15.938;2022-11-11T11:47:01;3.30;;;2.40;;
74465;SDS011;62916;50.044;15.938;2022-11-11T11:49:45;3.30;;;2.40;;
74465;SDS011;62916;50.044;15.938;2022-11-11T11:52:26;4.00;;;2.60;;
74465;SDS011;62916;50.044;15.938;2022-11-11T11:55:10;3.70;;;2.40;;
74465;SDS011;62916;50.044;15.938;2022-11-11T11:57:49;3.20;;;2.60;;
74465;SDS011;62916;50.044;15.938;2022-11-11T12:00:27;2.60;;;2.20;;
74465;SDS011;62916;50.044;15.938;2022-11-11T12:05:59;3.90;;;2.60;;
74465;SDS011;62916;50.044;15.938;2022-11-11T12:08:41;3.50;;;2.90;;
74465;SDS011;62916;50.044;15.938;2022-11-11T12:11:26;2.70;;;2.50;;
74465;SDS011;62916;50.044;15.938;2022-11-11T12:14:22;3.80;;;2.40;;
74465;SDS011;62916;50.044;15.938;2022-11-11T12:17:22;4.30;;;3.20;;
74465;SDS011;62916;50.044;15.938;2022-11-11T12:20:03;4.00;;;2.60;;
74465;SDS011;62916;50.044;15.938;2022-11-11T12:22:48;4.20;;;3.20;;
74465;SDS011;62916;50.044;15.938;2022-11-11T12:25:35;3.70;;;2.70;;
74465;SDS011;62916;50.044;15.938;2022-11-11T12:28:18;3.30;;;2.90;;
74465;SDS011;62916;50.044;15.938;2022-11-11T12:31:05;4.00;;;2.40;;
74465;SDS011;62916;50.044;15.938;2022-11-11T12:33:54;4.60;;;2.50;;
74465;SDS011;62916;50.044;15.938;2022-11-11T12:36:33;3.20;;;2.70;;
74465;SDS011;62916;50.044;15.938;2022-11-11T12:39:15;3.80;;;2.40;;
74465;SDS011;62916;50.044;15.938;2022-11-11T12:42:01;3.40;;;2.50;;
74465;SDS011;62916;50.044;15.938;2022-11-11T12:44:40;4.20;;;2.80;;
74465;SDS011;62916;50.044;15.938;2022-11-11T12:47:24;3.40;;;2.80;;
74465;SDS011;62916;50.044;15.938;2022-11-11T12:50:06;4.60;;;2.90;;
74465;SDS011;62916;50.044;15.938;2022-11-11T12:52:49;3.50;;;3.00;;
74465;SDS011;62916;50.044;15.938;2022-11-11T12:55:35;4.70;;;3.10;;
74465;SDS011;62916;50.044;15.938;2022-11-11T12:58:16;4.30;;;3.00;;
74465;SDS011;62916;50.044;15.938;2022-11-11T13:00:57;3.00;;;2.70;;
74465;SDS011;62916;50.044;15.938;2022-11-11T13:03:43;3.80;;;2.60;;
74465;SDS011;62916;50.044;15.938;2022-11-11T13:06:26;3.60;;;2.80;;
74465;SDS011;62916;50.044;15.938;2022-11-11T13:09:19;2.60;;;2.40;;
74465;SDS011;62916;50.044;15.938;2022-11-11T13:11:59;4.00;;;2.80;;
74465;SDS011;62916;50.044;15.938;2022-11-11T13:14:42;3.30;;;2.50;;
74465;SDS011;62916;50.044;15.938;2022-11-11T13:17:19;4.30;;;2.80;;
74465;SDS011;62916;50.044;15.938;2022-11-11T13:19:50;4.00;;;2.60;;
74465;SDS011;62916;50.044;15.938;2022-11-11T13:22:24;3.40;;;2.80;;
74465;SDS011;62916;50.044;15.938;2022-11-11T13:24:56;3.50;;;2.70;;
74465;SDS011;62916;50.044;15.938;2022-11-11T13:27:35;4.30;;;2.50;;
74465;SDS011;62916;50.044;15.938;2022-11-11T13:30:31;2.90;;;2.30;;
74465;SDS011;62916;50.044;15.938;2022-11-11T13:33:17;3.20;;;2.90;;
74465;SDS011;62916;50.044;15.938;2022-11-11T13:35:52;3.40;;;2.60;;
74465;SDS011;62916;50.044;15.938;2022-11-11T13:38:26;4.20;;;2.80;;
74465;SDS011;62916;50.044;15.938;2022-11-11T13:41:00;3.40;;;2.50;;
74465;SDS011;62916;50.044;15.938;2022-11-11T13:43:34;2.80;;;2.40;;
74465;SDS011;62916;50.044;15.938;2022-11-11T13:46:22;3.50;;;2.40;;
74465;SDS011;62916;50.044;15.938;2022-11-11T13:49:03;2.90;;;2.30;;
74465;SDS011;62916;50.044;15.938;2022-11-11T13:51:37;5.30;;;2.80;;
74465;SDS011;62916;50.044;15.938;2022-11-11T13:54:20;3.00;;;2.60;;
74465;SDS011;62916;50.044;15.938;2022-11-11T13:56:54;3.60;;;2.50;;
74465;SDS011;62916;50.044;15.938;2022-11-11T13:59:34;3.50;;;2.20;;
74465;SDS011;62916;50.044;15.938;2022-11-11T14:02:13;3.60;;;2.40;;
74465;SDS011;62916;50.044;15.938;2022-11-11T14:07:59;2.70;;;2.20;;
74465;SDS011;62916;50.044;15.938;2022-11-11T14:13:39;3.80;;;2.30;;
74465;SDS011;62916;50.044;15.938;2022-11-11T14:16:16;3.60;;;2.20;;
74465;SDS011;62916;50.044;15.938;2022-11-11T14:19:30;3.50;;;2.40;;
74465;SDS011;62916;50.044;15.938;2022-11-11T14:22:02;4.20;;;2.20;;
74465;SDS011;62916;50.044;15.938;2022-11-11T14:25:14;3.30;;;2.60;;
74465;SDS011;62916;50.044;15.938;2022-11-11T14:27:51;2.70;;;2.30;;
74465;SDS011;62916;50.044;15.938;2022-11-11T14:30:36;3.40;;;2.70;;
74465;SDS011;62916;50.044;15.938;2022-11-11T14:33:10;3.50;;;2.50;;
74465;SDS011;62916;50.044;15.938;2022-11-11T14:35:52;3.10;;;2.10;;
74465;SDS011;62916;50.044;15.938;2022-11-11T14:38:37;3.00;;;2.60;;
74465;SDS011;62916;50.044;15.938;2022-11-11T14:47:32;3.00;;;2.20;;
74465;SDS011;62916;50.044;15.938;2022-11-11T14:50:07;2.80;;;2.10;;
74465;SDS011;62916;50.044;15.938;2022-11-11T14:53:13;2.90;;;2.30;;
74465;SDS011;62916;50.044;15.938;2022-11-11T14:55:51;2.90;;;2.40;;
74465;SDS011;62916;50.044;15.938;2022-11-11T14:58:24;2.60;;;2.40;;
74465;SDS011;62916;50.044;15.938;2022-11-11T15:01:02;2.70;;;2.30;;
74465;SDS011;62916;50.044;15.938;2022-11-11T15:03:42;2.70;;;2.20;;
74465;SDS011;62916;50.044;15.938;2022-11-11T15:06:17;3.00;;;2.30;;
74465;SDS011;62916;50.044;15.938;2022-11-11T15:08:52;3.80;;;2.10;;
74465;SDS011;62916;50.044;15.938;2022-11-11T15:11:30;2.80;;;1.70;;
74465;SDS011;62916;50.044;15.938;2022-11-11T15:14:13;3.10;;;2.30;;
74465;SDS011;62916;50.044;15.938;2022-11-11T15:17:02;3.10;;;2.00;;
74465;SDS011;62916;50.044;15.938;2022-11-11T15:19:47;2.30;;;2.10;;
74465;SDS011;62916;50.044;15.938;2022-11-11T15:22:36;3.90;;;2.70;;
74465;SDS011;62916;50.044;15.938;2022-11-11T15:25:24;3.50;;;2.10;;
74465;SDS011;62916;50.044;15.938;2022-11-11T15:28:06;2.70;;;2.50;;
74465;SDS011;62916;50.044;15.938;2022-11-11T15:33:44;2.70;;;2.10;;
74465;SDS011;62916;50.044;15.938;2022-11-11T15:36:23;33.70;;;5.00;;
74465;SDS011;62916;50.044;15.938;2022-11-11T15:39:04;16.70;;;3.30;;
74465;SDS011;62916;50.044;15.938;2022-11-11T15:41:40;22.50;;;3.80;;
74465;SDS011;62916;50.044;15.938;2022-11-11T15:44:16;19.80;;;3.40;;
74465;SDS011;62916;50.044;15.938;2022-11-11T15:46:49;19.00;;;3.90;;
74465;SDS011;62916;50.044;15.938;2022-11-11T15:49:37;17.40;;;3.30;;